createdAt,value
2023-05-21T00:01:54.124Z,61.85
2023-05-21T00:06:06.593Z,61.73
2023-05-21T00:10:18.362Z,61.75
2023-05-21T00:14:30.048Z,61.82
2023-05-21T00:18:41.730Z,61.50
2023-05-21T00:22:53.620Z,61.80
2023-05-21T00:27:05.550Z,61.63
2023-05-21T00:31:17.348Z,61.87
2023-05-21T00:35:29.574Z,61.78
2023-05-21T00:39:41.483Z,62.22
2023-05-21T00:43:53.239Z,62.24
2023-05-21T00:48:06.393Z,62.16
2023-05-21T00:52:21.566Z,62.20
2023-05-21T00:56:33.468Z,62.42
2023-05-21T01:00:45.735Z,62.30
2023-05-21T01:04:57.393Z,62.82
2023-05-21T01:09:09.325Z,62.92
2023-05-21T01:13:23.175Z,62.95
2023-05-21T01:17:35.717Z,63.05
2023-05-21T01:21:52.891Z,63.32
2023-05-21T01:26:04.665Z,63.42
2023-05-21T01:30:19.319Z,63.86
2023-05-21T01:34:40.678Z,63.68
2023-05-21T01:39:14.297Z,63.89
2023-05-21T01:43:29.324Z,64.22
2023-05-21T01:47:41.956Z,64.21
2023-05-21T01:51:53.952Z,64.68
2023-05-21T01:56:06.166Z,64.44
2023-05-21T02:00:18.584Z,64.72
2023-05-21T02:04:31.630Z,64.87
2023-05-21T02:08:45.586Z,65.02
2023-05-21T02:12:57.301Z,65.34
2023-05-21T02:17:09.095Z,65.37
2023-05-21T02:21:20.926Z,65.88
2023-05-21T02:25:32.596Z,65.79
2023-05-21T02:29:44.293Z,66.02
2023-05-21T02:33:56.326Z,66.00
2023-05-21T02:38:09.196Z,66.21
2023-05-21T02:42:22.942Z,66.28
2023-05-21T02:46:34.656Z,66.19
2023-05-21T02:50:46.527Z,66.32
2023-05-21T02:54:58.497Z,66.86
2023-05-21T02:59:10.181Z,66.77
2023-05-21T03:03:22.903Z,66.84
2023-05-21T03:07:34.877Z,67.19
2023-05-21T03:11:46.688Z,67.54
2023-05-21T03:15:58.511Z,67.36
2023-05-21T03:20:16.259Z,67.20
2023-05-21T03:24:30.366Z,67.29
2023-05-21T03:28:42.285Z,67.88
2023-05-21T03:32:53.974Z,67.48
2023-05-21T03:37:05.691Z,67.42
2023-05-21T03:41:18.820Z,67.42
2023-05-21T03:45:35.743Z,67.43
2023-05-21T03:50:09.305Z,67.96
2023-05-21T03:54:21.310Z,68.44
2023-05-21T03:58:34.870Z,68.41
2023-05-21T04:02:47.000Z,68.39
2023-05-21T04:07:01.598Z,68.59
2023-05-21T04:11:13.571Z,68.69
2023-05-21T04:15:25.551Z,69.02
2023-05-21T04:19:37.407Z,68.76
2023-05-21T04:23:49.210Z,69.11
2023-05-21T04:28:20.528Z,69.00
2023-05-21T04:32:35.038Z,68.92
2023-05-21T04:36:46.932Z,69.20
2023-05-21T04:41:03.783Z,69.19
2023-05-21T04:45:15.495Z,69.48
2023-05-21T04:49:30.169Z,69.65
2023-05-21T04:53:42.580Z,69.57
2023-05-21T04:57:54.350Z,69.54
2023-05-21T05:02:06.294Z,69.74
2023-05-21T05:06:18.030Z,69.78
2023-05-21T05:10:30.461Z,69.90
2023-05-21T05:14:42.221Z,70.35
2023-05-21T05:18:54.614Z,70.50
2023-05-21T05:23:07.028Z,70.54
2023-05-21T05:27:19.166Z,70.57
2023-05-21T05:31:31.192Z,70.61
2023-05-21T05:35:43.078Z,70.28
2023-05-21T05:39:54.789Z,70.20
2023-05-21T05:44:07.844Z,70.27
2023-05-21T05:48:22.422Z,70.52
2023-05-21T05:52:34.251Z,70.53
2023-05-21T05:56:46.223Z,70.42
2023-05-21T06:00:58.113Z,70.24
2023-05-21T06:05:12.443Z,70.33
2023-05-21T06:09:24.770Z,70.11
2023-05-21T06:13:37.016Z,70.08
2023-05-21T06:17:50.016Z,70.01
2023-05-21T06:22:01.826Z,69.60
2023-05-21T06:26:14.065Z,68.99
2023-05-21T06:30:25.998Z,68.30
2023-05-21T06:34:38.523Z,67.53
2023-05-21T06:38:50.243Z,66.33
2023-05-21T06:43:04.883Z,65.74
2023-05-21T06:47:42.776Z,64.82
2023-05-21T06:51:54.859Z,63.61
2023-05-21T06:56:06.757Z,61.21
2023-05-21T07:00:24.571Z,60.26
2023-05-21T07:04:36.657Z,57.50
2023-05-21T07:08:49.895Z,55.59
2023-05-21T07:13:01.773Z,53.41
2023-05-21T07:17:14.455Z,50.34
2023-05-21T07:21:26.736Z,49.79
2023-05-21T07:25:39.821Z,49.37
2023-05-21T07:29:51.502Z,48.38
2023-05-21T07:34:03.569Z,48.26
2023-05-21T07:38:17.686Z,47.95
2023-05-21T07:42:31.172Z,47.18
2023-05-21T07:46:43.445Z,46.88
2023-05-21T07:50:58.941Z,46.25
2023-05-21T07:55:11.806Z,46.31
2023-05-21T07:59:26.055Z,45.74
2023-05-21T08:03:38.649Z,45.83
2023-05-21T08:07:50.778Z,45.38
2023-05-21T08:12:04.612Z,45.17
2023-05-21T08:16:16.845Z,45.11
2023-05-21T08:20:30.950Z,44.90
2023-05-21T08:24:42.795Z,44.09
2023-05-21T08:28:54.532Z,43.33
2023-05-21T08:33:06.394Z,42.43
2023-05-21T08:37:20.462Z,42.50
2023-05-21T08:41:49.799Z,41.92
2023-05-21T08:46:04.353Z,40.78
2023-05-21T08:50:19.552Z,39.84
2023-05-21T08:54:32.716Z,39.72
2023-05-21T08:58:46.904Z,39.48
2023-05-21T09:03:07.746Z,39.53
2023-05-21T09:07:20.700Z,39.43
2023-05-21T09:11:55.104Z,39.31
2023-05-21T09:16:07.490Z,39.24
2023-05-21T09:20:25.267Z,38.49
2023-05-21T09:24:41.952Z,38.63
2023-05-21T09:28:59.356Z,38.22
2023-05-21T09:33:12.125Z,37.55
2023-05-21T09:37:27.521Z,37.01
2023-05-21T09:41:42.421Z,36.44
2023-05-21T09:45:56.558Z,36.22
2023-05-21T09:50:21.022Z,36.20
2023-05-21T09:54:34.519Z,35.89
2023-05-21T09:58:46.593Z,35.68
2023-05-21T10:03:01.567Z,36.09
2023-05-21T10:07:14.282Z,36.22
2023-05-21T10:11:27.436Z,36.52
2023-05-21T10:15:44.214Z,36.06
2023-05-21T10:19:56.809Z,35.75
2023-05-21T10:24:12.395Z,35.29
2023-05-21T10:28:24.389Z,34.82
2023-05-21T10:32:36.325Z,34.11
2023-05-21T10:36:49.479Z,33.85
2023-05-21T10:41:04.606Z,34.01
2023-05-21T10:45:36.699Z,33.95
2023-05-21T10:49:58.976Z,33.36
2023-05-21T10:54:38.886Z,33.91
2023-05-21T10:59:02.905Z,33.39
2023-05-21T11:03:15.681Z,33.28
2023-05-21T11:07:54.150Z,33.07
2023-05-21T11:12:08.172Z,33.17
2023-05-21T11:16:25.909Z,33.22
2023-05-21T11:20:37.807Z,33.39
2023-05-21T11:24:51.355Z,33.54
2023-05-21T11:29:03.153Z,33.74
2023-05-21T11:33:17.697Z,33.26
2023-05-21T11:37:31.173Z,33.15
2023-05-21T11:41:53.723Z,33.47
2023-05-21T11:46:05.658Z,33.76
2023-05-21T11:50:18.089Z,34.08
2023-05-21T11:54:36.996Z,34.51
2023-05-21T11:58:48.696Z,34.78
2023-05-21T12:03:00.705Z,34.72
2023-05-21T12:07:15.647Z,35.28
2023-05-21T12:11:27.774Z,35.56
2023-05-21T12:15:39.506Z,35.79
2023-05-21T12:19:53.906Z,36.42
2023-05-21T12:24:05.838Z,36.92
2023-05-21T12:28:17.716Z,37.29
2023-05-21T12:32:29.400Z,37.56
2023-05-21T12:36:46.239Z,38.11
2023-05-21T12:41:04.240Z,38.33
2023-05-21T12:45:18.767Z,38.90
2023-05-21T12:49:41.349Z,38.35
2023-05-21T12:53:53.075Z,38.68
2023-05-21T12:58:07.890Z,38.93
2023-05-21T13:02:24.936Z,39.03
2023-05-21T13:06:43.680Z,39.61
2023-05-21T13:10:55.727Z,40.01
2023-05-21T13:15:08.149Z,40.30
2023-05-21T13:19:19.959Z,40.74
2023-05-21T13:23:31.606Z,40.94
2023-05-21T13:27:43.605Z,41.22
2023-05-21T13:31:55.312Z,41.03
2023-05-21T13:36:07.374Z,41.12
2023-05-21T13:40:19.112Z,40.68
2023-05-21T13:44:33.310Z,40.63
2023-05-21T13:48:44.982Z,40.59
2023-05-21T13:52:56.710Z,41.55
2023-05-21T13:57:08.554Z,41.72
2023-05-21T14:01:20.321Z,41.27
2023-05-21T14:05:32.015Z,40.57
2023-05-21T14:09:43.715Z,41.04
2023-05-21T14:13:55.408Z,40.59
2023-05-21T14:18:10.371Z,41.16
2023-05-21T14:22:22.054Z,40.99
2023-05-21T14:26:33.932Z,41.48
2023-05-21T14:30:45.860Z,41.40
2023-05-21T14:34:57.554Z,41.58
2023-05-21T14:39:09.299Z,42.08
2023-05-21T14:43:21.251Z,42.60
2023-05-21T14:47:33.084Z,42.67
2023-05-21T14:51:45.042Z,42.52
2023-05-21T14:55:56.706Z,42.69
2023-05-21T15:00:08.768Z,42.99
2023-05-21T15:04:20.484Z,43.13
2023-05-21T15:08:32.143Z,43.24
2023-05-21T15:12:43.872Z,43.22
2023-05-21T15:16:55.636Z,43.26
2023-05-21T15:21:07.475Z,43.18
2023-05-21T15:25:20.140Z,43.23
2023-05-21T15:29:31.987Z,43.96
2023-05-21T15:33:43.612Z,44.14
2023-05-21T15:37:55.316Z,44.79
2023-05-21T15:42:07.010Z,44.98
2023-05-21T15:46:18.789Z,44.80
2023-05-21T15:50:30.492Z,44.79
2023-05-21T15:54:42.294Z,45.10
2023-05-21T15:58:53.991Z,45.13
2023-05-21T16:03:05.865Z,45.42
2023-05-21T16:07:18.228Z,45.51
2023-05-21T16:11:30.013Z,45.59
2023-05-21T16:15:41.737Z,45.55
2023-05-21T16:19:53.400Z,46.50
2023-05-21T16:24:05.620Z,45.94
2023-05-21T16:28:17.368Z,45.97
2023-05-21T16:32:29.176Z,45.85
2023-05-21T16:36:41.487Z,45.93
2023-05-21T16:40:53.219Z,45.96
2023-05-21T16:45:05.374Z,46.04
2023-05-21T16:49:17.161Z,45.98
2023-05-21T16:53:28.837Z,46.24
2023-05-21T16:57:40.491Z,46.42
2023-05-21T17:01:52.424Z,46.36
2023-05-21T17:06:04.129Z,46.59
2023-05-21T17:10:16.148Z,46.52
2023-05-21T17:14:34.479Z,46.54
2023-05-21T17:18:46.704Z,46.48
2023-05-21T17:22:58.444Z,47.03
2023-05-21T17:27:10.727Z,47.12
2023-05-21T17:31:22.481Z,47.00
2023-05-21T17:35:34.488Z,47.65
2023-05-21T17:39:46.249Z,48.10
2023-05-21T17:43:58.726Z,48.46
2023-05-21T17:48:11.944Z,48.51
2023-05-21T17:52:23.744Z,49.04
2023-05-21T17:56:39.085Z,49.09
2023-05-21T18:00:50.883Z,49.23
2023-05-21T18:05:04.460Z,49.49
2023-05-21T18:09:16.178Z,49.38
2023-05-21T18:13:29.375Z,49.81
2023-05-21T18:17:41.206Z,50.06
2023-05-21T18:21:53.038Z,50.63
2023-05-21T18:26:05.782Z,50.82
2023-05-21T18:30:17.498Z,51.04
2023-05-21T18:34:29.232Z,51.48
2023-05-21T18:38:41.038Z,51.90
2023-05-21T18:42:52.979Z,52.04
2023-05-21T18:47:04.929Z,52.27
2023-05-21T18:51:16.804Z,52.89
2023-05-21T18:55:28.490Z,52.86
2023-05-21T18:59:40.879Z,53.19
2023-05-21T19:03:52.647Z,53.61
2023-05-21T19:08:04.510Z,53.98
2023-05-21T19:12:16.225Z,54.38
2023-05-21T19:16:27.980Z,54.69
2023-05-21T19:20:40.110Z,54.92
2023-05-21T19:24:52.218Z,55.33
2023-05-21T19:29:04.053Z,55.63
2023-05-21T19:33:16.094Z,56.21
2023-05-21T19:37:27.808Z,56.56
2023-05-21T19:41:39.475Z,56.79
2023-05-21T19:45:51.110Z,57.22
2023-05-21T19:50:03.701Z,57.60
2023-05-21T19:54:15.402Z,57.87
2023-05-21T19:58:29.557Z,57.92
2023-05-21T20:02:41.535Z,58.73
2023-05-21T20:06:53.478Z,59.27
2023-05-21T20:11:05.142Z,59.38
2023-05-21T20:15:18.299Z,59.69
2023-05-21T20:19:30.420Z,60.01
2023-05-21T20:23:42.245Z,60.57
2023-05-21T20:27:53.932Z,61.34
2023-05-21T20:32:06.040Z,61.34
2023-05-21T20:36:17.911Z,61.70
2023-05-21T20:40:29.653Z,62.27
2023-05-21T20:44:41.383Z,62.55
2023-05-21T20:48:53.069Z,63.28
2023-05-21T20:53:04.762Z,63.63
2023-05-21T20:57:16.613Z,64.74
2023-05-21T21:01:30.989Z,65.55
2023-05-21T21:05:42.824Z,66.98
2023-05-21T21:09:54.552Z,67.20
2023-05-21T21:14:06.270Z,68.03
2023-05-21T21:18:18.028Z,68.61
2023-05-21T21:22:30.703Z,69.46
2023-05-21T21:26:42.361Z,69.54
2023-05-21T21:30:54.227Z,69.99
2023-05-21T21:35:06.269Z,70.25
2023-05-21T21:39:17.935Z,70.87
2023-05-21T21:43:29.613Z,71.40
2023-05-21T21:47:41.439Z,71.78
2023-05-21T21:51:57.612Z,72.50
2023-05-21T21:56:09.378Z,72.54
2023-05-21T22:00:21.144Z,73.41
2023-05-21T22:04:32.871Z,73.78
2023-05-21T22:08:44.614Z,74.40
2023-05-21T22:12:56.896Z,74.78
2023-05-21T22:17:09.038Z,75.02
2023-05-21T22:21:21.555Z,74.91
2023-05-21T22:25:33.219Z,75.18
2023-05-21T22:29:44.935Z,75.97
2023-05-21T22:33:56.583Z,75.48
2023-05-21T22:38:08.539Z,75.25
2023-05-21T22:42:20.362Z,74.75
2023-05-21T22:46:32.138Z,74.18
2023-05-21T22:50:46.352Z,73.65
2023-05-21T22:54:58.825Z,73.54
2023-05-21T22:59:10.590Z,73.61
2023-05-21T23:03:22.280Z,73.88
2023-05-21T23:07:34.014Z,74.54
2023-05-21T23:11:45.763Z,74.28
2023-05-21T23:15:59.424Z,74.55
2023-05-21T23:20:11.228Z,75.10
2023-05-21T23:24:23.016Z,75.42
2023-05-21T23:28:37.057Z,76.59
2023-05-21T23:32:48.719Z,77.13
2023-05-21T23:37:00.788Z,77.19
2023-05-21T23:41:13.130Z,77.67
2023-05-21T23:45:24.954Z,78.29
2023-05-21T23:49:36.825Z,78.90
2023-05-21T23:53:48.607Z,79.32
2023-05-21T23:58:00.423Z,79.89
